Time;durP1;ratioP1;P1;durP2;ratioP2;P2;SDS_P1;SDS_P2;PMS_P1;PMS_P2;Temp;Humidity;BMP_temperature;BMP_pressure;BME280_temperature;BME280_humidity;BME280_pressure;Samples;Min_cycle;Max_cycle;Signal;HPM_P1;HPM_P2
2022/07/07 00:02:12;;;;;;;9.20;3.20;;;15.20;99.90;;;;;;5065993;28;20391;-55
2022/07/07 00:04:38;;;;;;;10.35;3.10;;;15.30;99.90;;;;;;5067109;28;20372;-55
2022/07/07 00:07:04;;;;;;;7.75;3.00;;;15.40;99.90;;;;;;5067733;28;20376;-54
2022/07/07 00:09:30;;;;;;;7.77;2.70;;;15.30;99.90;;;;;;5066780;28;20375;-55
2022/07/07 00:11:57;;;;;;;9.15;2.85;;;15.30;99.90;;;;;;5070426;28;20417;-55
2022/07/07 00:14:22;;;;;;;8.70;3.00;;;15.30;99.90;;;;;;5067423;28;20392;-54
2022/07/07 00:16:48;;;;;;;9.32;3.35;;;15.30;99.90;;;;;;5066671;28;20395;-55
2022/07/07 00:19:14;;;;;;;8.00;3.23;;;15.40;99.90;;;;;;5067803;28;20459;-55
2022/07/07 00:21:40;;;;;;;7.63;3.10;;;15.40;99.90;;;;;;5066101;28;20483;-55
2022/07/07 00:24:06;;;;;;;10.00;3.50;;;15.40;99.90;;;;;;5067589;28;20486;-56
2022/07/07 00:26:33;;;;;;;7.65;3.33;;;15.40;99.90;;;;;;5065750;28;20420;-54
2022/07/07 00:28:59;;;;;;;8.48;2.90;;;15.30;99.90;;;;;;5068774;28;20472;-54
2022/07/07 00:31:25;;;;;;;8.93;3.05;;;15.30;99.90;;;;;;5067905;28;20447;-54
2022/07/07 00:33:51;;;;;;;8.93;3.30;;;15.20;99.90;;;;;;5071226;28;20401;-54
2022/07/07 00:36:16;;;;;;;7.95;3.00;;;15.10;99.90;;;;;;5072130;28;20876;-54
2022/07/07 00:38:42;;;;;;;7.10;3.03;;;15.10;99.90;;;;;;5070468;28;20424;-54
2022/07/07 00:41:08;;;;;;;7.95;3.08;;;15.00;99.90;;;;;;5071613;28;21292;-55
2022/07/07 00:43:41;;;;;;;7.00;3.10;;;15.00;99.90;;;;;;5070838;28;20391;-55
2022/07/07 00:46:08;;;;;;;8.50;3.80;;;14.90;99.90;;;;;;5072916;28;20437;-55
2022/07/07 00:48:36;;;;;;;8.83;3.37;;;15.00;99.90;;;;;;5070449;28;20466;-54
2022/07/07 00:51:04;;;;;;;6.82;3.00;;;15.00;99.90;;;;;;5072685;28;20491;-54
2022/07/07 00:53:30;;;;;;;10.35;3.72;;;15.10;99.90;;;;;;5072002;28;20713;-54
2022/07/07 00:55:55;;;;;;;9.07;2.90;;;15.20;99.90;;;;;;5071414;28;20411;-54
2022/07/07 00:58:21;;;;;;;7.88;3.33;;;15.30;99.90;;;;;;5072068;28;20779;-53
2022/07/07 01:00:48;;;;;;;7.00;3.20;;;15.30;99.90;;;;;;5070181;28;21768;-54
2022/07/07 01:03:13;;;;;;;9.20;4.20;;;15.30;99.90;;;;;;5070180;28;20388;-53
2022/07/07 01:05:40;;;;;;;7.78;3.65;;;15.30;99.90;;;;;;5070434;28;21032;-54
2022/07/07 01:08:08;;;;;;;8.10;4.00;;;15.30;99.90;;;;;;5072131;28;20395;-54
2022/07/07 01:10:35;;;;;;;8.95;3.65;;;15.20;1.00;;;;;;5067941;28;20849;-56
2022/07/07 01:13:04;;;;;;;9.55;3.80;;;15.10;1.00;;;;;;5071002;28;20426;-55
2022/07/07 01:15:30;;;;;;;9.95;3.38;;;15.10;1.00;;;;;;5070238;28;20411;-54
2022/07/07 01:17:56;;;;;;;9.18;3.90;;;15.10;1.00;;;;;;5072090;28;20395;-54
2022/07/07 01:20:23;;;;;;;7.30;3.70;;;15.10;1.00;;;;;;5070150;28;20445;-54
2022/07/07 01:22:53;;;;;;;8.70;3.60;;;14.90;1.00;;;;;;5072012;28;20396;-55
2022/07/07 01:25:19;;;;;;;8.25;3.58;;;15.20;1.00;;;;;;5071644;28;20970;-56
2022/07/07 01:27:45;;;;;;;9.25;3.97;;;15.30;1.00;;;;;;5071682;28;20853;-55
2022/07/07 01:30:12;;;;;;;9.38;3.50;;;15.30;1.00;;;;;;5070803;28;20375;-54
2022/07/07 01:32:37;;;;;;;8.00;3.40;;;15.30;1.00;;;;;;5068900;28;20437;-53
2022/07/07 01:35:03;;;;;;;7.47;3.30;;;15.30;1.00;;;;;;5071852;28;20403;-55
2022/07/07 01:37:29;;;;;;;7.33;3.20;;;15.40;1.00;;;;;;5069489;28;20376;-56
2022/07/07 01:39:55;;;;;;;8.05;3.42;;;15.30;1.00;;;;;;5072419;28;20867;-54
2022/07/07 01:42:21;;;;;;;9.50;3.40;;;15.10;1.00;;;;;;5068379;28;20392;-55
2022/07/07 01:44:51;;;;;;;7.20;3.30;;;15.10;1.00;;;;;;5071968;28;20426;-55
2022/07/07 01:47:19;;;;;;;7.18;3.20;;;15.20;1.00;;;;;;5067794;28;20507;-55
2022/07/07 01:49:46;;;;;;;8.00;3.20;;;15.10;1.00;;;;;;5070300;28;20808;-54
2022/07/07 01:52:12;;;;;;;8.27;3.50;;;15.10;1.00;;;;;;5069894;28;20404;-55
2022/07/07 01:54:38;;;;;;;6.47;3.00;;;15.20;1.00;;;;;;5068714;28;20799;-55
2022/07/07 01:57:07;;;;;;;8.65;3.13;;;15.20;1.00;;;;;;5069874;28;20438;-55
2022/07/07 01:59:34;;;;;;;7.30;3.20;;;15.10;1.00;;;;;;5066710;28;20486;-55
2022/07/07 02:01:59;;;;;;;10.40;3.10;;;15.30;1.00;;;;;;5069591;28;20396;-54
2022/07/07 02:04:25;;;;;;;6.85;2.80;;;15.20;1.00;;;;;;5069982;28;20446;-54
2022/07/07 02:06:51;;;;;;;6.53;2.65;;;15.20;1.00;;;;;;5069382;28;20417;-54
2022/07/07 02:09:17;;;;;;;8.13;3.00;;;15.20;1.00;;;;;;5069506;28;20383;-55
2022/07/07 02:11:43;;;;;;;7.22;3.08;;;15.20;1.00;;;;;;5068653;28;20408;-54
2022/07/07 02:14:09;;;;;;;7.97;3.00;;;15.10;1.00;;;;;;5069329;28;20581;-54
2022/07/07 02:16:36;;;;;;;7.80;3.00;;;15.10;1.00;;;;;;5068573;28;20776;-55
2022/07/07 02:19:04;;;;;;;7.22;2.70;;;15.00;1.00;;;;;;5070392;28;20449;-54
2022/07/07 02:21:30;;;;;;;8.93;3.50;;;15.00;1.00;;;;;;5068368;28;20391;-54
2022/07/07 02:23:57;;;;;;;6.95;2.72;;;15.00;1.00;;;;;;5070744;28;20648;-54
2022/07/07 02:26:23;;;;;;;9.48;2.80;;;14.90;1.00;;;;;;5068372;28;20521;-54
2022/07/07 02:28:49;;;;;;;7.70;3.20;;;14.90;1.00;;;;;;5069009;28;20399;-54
2022/07/07 02:31:15;;;;;;;8.00;3.53;;;14.90;1.00;;;;;;5069121;28;20380;-55
2022/07/07 02:33:41;;;;;;;8.75;3.10;;;14.80;1.00;;;;;;5067904;28;20396;-54
2022/07/07 02:36:08;;;;;;;6.50;2.75;;;14.90;1.00;;;;;;5069175;28;20854;-54
2022/07/07 02:38:35;;;;;;;7.45;3.35;;;15.00;1.00;;;;;;5065707;28;20851;-56
2022/07/07 02:41:02;;;;;;;7.90;3.00;;;14.90;1.00;;;;;;5068193;28;20403;-55
2022/07/07 02:43:28;;;;;;;8.20;3.28;;;14.90;1.00;;;;;;5069470;28;20399;-54
2022/07/07 02:45:54;;;;;;;8.52;3.30;;;14.90;1.00;;;;;;5068817;28;20376;-54
2022/07/07 02:48:21;;;;;;;6.80;3.08;;;15.00;1.00;;;;;;5069158;28;20384;-54
2022/07/07 02:50:47;;;;;;;7.63;3.45;;;15.00;1.00;;;;;;5068341;28;20390;-54
2022/07/07 02:53:14;;;;;;;7.57;3.20;;;15.00;1.00;;;;;;5066227;28;20473;-55
2022/07/07 02:55:41;;;;;;;8.30;3.00;;;15.00;1.00;;;;;;5067391;28;20438;-54
2022/07/07 02:58:08;;;;;;;6.90;2.70;;;15.10;1.00;;;;;;5068869;28;20400;-54
2022/07/07 03:00:34;;;;;;;9.60;3.30;;;15.10;1.00;;;;;;5065119;28;20375;-54
2022/07/07 03:03:02;;;;;;;7.13;2.65;;;15.10;1.00;;;;;;5068524;28;20426;-54
2022/07/07 03:05:28;;;;;;;7.50;3.10;;;15.20;1.00;;;;;;5067582;28;20449;-54
2022/07/07 03:07:54;;;;;;;9.07;3.30;;;15.20;1.00;;;;;;5049006;28;20388;-56
2022/07/07 03:10:20;;;;;;;8.10;3.30;;;15.20;1.00;;;;;;5068479;28;20375;-55
2022/07/07 03:12:46;;;;;;;7.70;3.35;;;15.20;1.00;;;;;;5067137;28;20508;-55
2022/07/07 03:15:11;;;;;;;7.60;2.90;;;15.20;1.00;;;;;;5068673;28;20428;-55
2022/07/07 03:17:41;;;;;;;7.47;2.70;;;15.30;1.00;;;;;;5072984;28;20406;-55
2022/07/07 03:20:08;;;;;;;6.65;2.95;;;15.30;1.00;;;;;;5088754;28;20905;-54
2022/07/07 03:22:33;;;;;;;8.15;2.80;;;15.40;1.00;;;;;;5081528;28;20476;-54
2022/07/07 03:24:59;;;;;;;9.87;3.40;;;15.50;1.00;;;;;;5068335;28;20388;-54
2022/07/07 03:27:24;;;;;;;8.00;3.20;;;15.50;1.00;;;;;;5066407;28;20898;-54
2022/07/07 03:29:51;;;;;;;6.70;3.07;;;15.60;1.00;;;;;;5068568;28;20386;-55
2022/07/07 03:32:17;;;;;;;8.70;3.22;;;15.60;1.00;;;;;;5069409;28;20411;-55
2022/07/07 03:34:43;;;;;;;8.80;2.88;;;15.60;1.00;;;;;;5078664;28;20473;-54
2022/07/07 03:37:08;;;;;;;10.40;3.20;;;15.70;1.00;;;;;;5066933;28;21279;-54
2022/07/07 03:39:34;;;;;;;7.17;2.80;;;15.70;1.00;;;;;;5063416;28;20416;-55
2022/07/07 03:42:00;;;;;;;7.27;2.70;;;15.70;1.00;;;;;;5068993;28;20436;-55
2022/07/07 03:44:25;;;;;;;8.90;2.83;;;15.70;1.00;;;;;;5086573;28;20750;-54
2022/07/07 03:46:51;;;;;;;8.98;2.90;;;15.80;1.00;;;;;;5085941;28;20492;-54
2022/07/07 03:49:17;;;;;;;8.00;3.10;;;15.80;1.00;;;;;;5069168;28;20425;-54
2022/07/07 03:51:42;;;;;;;8.10;3.10;;;15.80;1.00;;;;;;5067772;28;20422;-55
2022/07/07 03:54:09;;;;;;;8.38;3.10;;;15.80;1.00;;;;;;5068164;28;20449;-54
2022/07/07 03:56:35;;;;;;;7.50;3.30;;;15.80;1.00;;;;;;5068712;28;20434;-55
2022/07/07 03:59:02;;;;;;;6.75;2.88;;;15.70;1.00;;;;;;5065859;28;20407;-55
2022/07/07 04:01:27;;;;;;;9.30;3.10;;;15.60;1.00;;;;;;5065889;28;20397;-54
2022/07/07 04:03:53;;;;;;;7.90;3.00;;;15.60;1.00;;;;;;5063029;28;20375;-55
2022/07/07 04:06:19;;;;;;;7.30;3.10;;;15.60;1.00;;;;;;5066179;28;20728;-55
2022/07/07 04:08:44;;;;;;;8.10;2.75;;;15.90;1.00;;;;;;5071366;28;20742;-55
2022/07/07 04:11:10;;;;;;;6.70;2.70;;;15.80;1.00;;;;;;5071727;28;20729;-54
2022/07/07 04:13:36;;;;;;;7.90;2.80;;;15.80;1.00;;;;;;5071323;28;20423;-55
2022/07/07 04:16:01;;;;;;;7.30;2.90;;;15.90;1.00;;;;;;5071336;28;20402;-55
2022/07/07 04:18:27;;;;;;;7.10;2.50;;;16.00;1.00;;;;;;5088144;28;20790;-54
2022/07/07 04:20:53;;;;;;;9.00;2.57;;;15.90;1.00;;;;;;5091098;28;20400;-55
2022/07/07 04:23:18;;;;;;;6.85;2.90;;;15.80;1.00;;;;;;5074408;28;20760;-55
2022/07/07 04:25:44;;;;;;;9.20;2.70;;;15.80;1.00;;;;;;5060111;28;20411;-55
2022/07/07 04:28:09;;;;;;;8.87;3.20;;;15.80;1.00;;;;;;5086092;28;20697;-55
2022/07/07 04:30:35;;;;;;;7.00;3.10;;;15.70;1.00;;;;;;5076770;28;20814;-55
2022/07/07 04:33:01;;;;;;;9.00;3.10;;;15.70;1.00;;;;;;5083818;28;20843;-55
2022/07/07 04:35:26;;;;;;;7.63;3.15;;;15.80;1.00;;;;;;5078790;28;20395;-55
2022/07/07 04:37:52;;;;;;;6.50;2.70;;;15.80;1.00;;;;;;5069025;28;20815;-55
2022/07/07 04:40:18;;;;;;;7.70;2.47;;;15.90;1.00;;;;;;5051769;28;20508;-55
2022/07/07 04:42:43;;;;;;;8.52;2.65;;;16.10;1.00;;;;;;5072711;28;20488;-55
2022/07/07 04:45:11;;;;;;;7.60;2.80;;;16.20;1.00;;;;;;5092426;28;20382;-54
2022/07/07 04:47:41;;;;;;;6.90;2.90;;;16.20;1.00;;;;;;5081247;28;20419;-53
2022/07/07 04:50:13;;;;;;;7.50;2.80;;;16.20;1.00;;;;;;5071694;28;20465;-55
2022/07/07 04:52:39;;;;;;;8.60;3.00;;;16.10;1.00;;;;;;5080938;28;20401;-54
2022/07/07 04:55:06;;;;;;;8.60;2.90;;;16.00;1.00;;;;;;5083196;28;20391;-56
2022/07/07 04:57:32;;;;;;;7.13;3.10;;;16.00;1.00;;;;;;5079506;28;20401;-55
2022/07/07 04:59:58;;;;;;;8.02;2.85;;;16.00;1.00;;;;;;5070038;28;20502;-56
2022/07/07 05:02:24;;;;;;;6.90;2.97;;;15.90;1.00;;;;;;5071517;28;20740;-55
2022/07/07 05:04:50;;;;;;;9.80;2.70;;;16.10;99.90;;;;;;5070183;28;20376;-54
2022/07/07 05:07:16;;;;;;;7.90;2.50;;;16.10;99.90;;;;;;5070192;28;20387;-56
2022/07/07 05:09:42;;;;;;;8.02;2.63;;;16.40;99.90;;;;;;5069430;28;20376;-56
2022/07/07 05:12:08;;;;;;;6.97;2.20;;;17.60;99.90;;;;;;5070648;28;20430;-55
2022/07/07 05:14:33;;;;;;;10.43;2.90;;;18.90;99.90;;;;;;5069131;28;20410;-55
2022/07/07 05:17:02;;;;;;;8.13;2.80;;;19.60;99.90;;;;;;5072612;28;20880;-55
2022/07/07 05:19:28;;;;;;;8.45;2.40;;;20.20;99.90;;;;;;5085803;28;20392;-55
2022/07/07 05:21:54;;;;;;;7.18;2.60;;;20.80;99.90;;;;;;5080423;28;20396;-55
2022/07/07 05:24:20;;;;;;;7.25;2.25;;;20.90;99.90;;;;;;5070980;28;20407;-54
2022/07/07 05:26:46;;;;;;;6.87;2.30;;;21.40;99.90;;;;;;5071601;28;20436;-56
2022/07/07 05:29:13;;;;;;;8.45;2.50;;;21.90;99.90;;;;;;5068456;28;20494;-55
2022/07/07 05:31:38;;;;;;;7.18;2.50;;;21.80;99.90;;;;;;5067383;28;20881;-55
2022/07/07 05:34:04;;;;;;;8.13;2.60;;;22.00;99.90;;;;;;5070214;28;20390;-55
2022/07/07 05:36:34;;;;;;;9.20;2.63;;;22.50;99.90;;;;;;5075549;28;20407;-55
2022/07/07 05:39:00;;;;;;;6.90;2.20;;;22.80;99.90;;;;;;5059208;28;20429;-55
2022/07/07 05:41:26;;;;;;;6.45;2.30;;;22.80;99.90;;;;;;5066449;28;20873;-55
2022/07/07 05:43:52;;;;;;;7.18;2.50;;;23.00;99.90;;;;;;5057736;28;20475;-55
2022/07/07 05:46:17;;;;;;;6.00;2.30;;;23.00;99.90;;;;;;5084347;28;20712;-56
2022/07/07 05:48:43;;;;;;;7.10;2.40;;;23.30;99.90;;;;;;5088584;28;20739;-55
2022/07/07 05:51:09;;;;;;;6.80;2.30;;;22.80;99.90;;;;;;5077797;28;20395;-55
2022/07/07 05:53:36;;;;;;;5.63;2.30;;;22.80;99.90;;;;;;5069915;28;20410;-55
2022/07/07 05:56:02;;;;;;;8.38;2.67;;;23.20;99.90;;;;;;5082409;28;20417;-55
2022/07/07 05:58:28;;;;;;;6.10;2.25;;;22.60;99.90;;;;;;5088991;28;20707;-55
2022/07/07 06:00:53;;;;;;;6.18;2.50;;;22.70;99.90;;;;;;5088334;28;20391;-55
2022/07/07 06:03:19;;;;;;;8.80;2.53;;;22.50;99.90;;;;;;5074853;28;20515;-56
2022/07/07 06:05:45;;;;;;;6.50;2.30;;;22.80;99.90;;;;;;5063725;28;20405;-56
2022/07/07 06:08:10;;;;;;;8.93;2.50;;;23.70;99.90;;;;;;5071268;28;20402;-56
2022/07/07 06:10:36;;;;;;;7.55;2.75;;;23.90;99.90;;;;;;5069240;28;20402;-56
2022/07/07 06:13:02;;;;;;;10.45;2.40;;;23.00;99.90;;;;;;5070162;28;20828;-56
2022/07/07 06:15:32;;;;;;;8.13;2.42;;;23.70;99.90;;;;;;5069953;28;20403;-56
2022/07/07 06:18:00;;;;;;;6.47;2.45;;;24.80;99.90;;;;;;5077102;28;20412;-57
2022/07/07 06:20:26;;;;;;;7.82;2.80;;;25.80;99.90;;;;;;5090042;28;20378;-57
2022/07/07 06:22:51;;;;;;;10.80;3.00;;;25.80;99.90;;;;;;5087163;28;20470;-57
2022/07/07 06:25:17;;;;;;;9.00;2.40;;;25.40;99.90;;;;;;5086584;28;20414;-56
2022/07/07 06:27:42;;;;;;;8.13;2.53;;;23.50;99.90;;;;;;5083410;28;20388;-57
2022/07/07 06:30:09;;;;;;;6.30;2.40;;;23.80;99.90;;;;;;5069919;28;20409;-57
2022/07/07 06:32:35;;;;;;;6.88;2.50;;;24.70;99.90;;;;;;5073121;28;20899;-56
2022/07/07 06:35:01;;;;;;;9.70;2.40;;;24.60;99.90;;;;;;5089774;28;20480;-57
2022/07/07 06:37:28;;;;;;;7.97;2.60;;;24.20;99.90;;;;;;5085219;28;20584;-56
2022/07/07 06:39:54;;;;;;;7.40;2.70;;;23.60;99.90;;;;;;5070277;28;20493;-56
2022/07/07 06:42:20;;;;;;;7.30;2.30;;;23.40;99.90;;;;;;5089696;28;20378;-56
2022/07/07 06:44:46;;;;;;;7.30;2.57;;;23.40;99.90;;;;;;5087598;28;20418;-56
2022/07/07 06:47:11;;;;;;;6.97;2.42;;;23.70;99.90;;;;;;5069383;28;20406;-56
2022/07/07 06:49:37;;;;;;;8.07;2.70;;;23.40;99.90;;;;;;5068398;28;20490;-56
2022/07/07 06:52:03;;;;;;;5.97;2.20;;;23.00;99.90;;;;;;5089038;28;20912;-57
2022/07/07 06:54:28;;;;;;;6.75;2.40;;;23.10;99.90;;;;;;5088990;28;20912;-56
2022/07/07 06:56:54;;;;;;;7.13;2.37;;;22.80;99.90;;;;;;5072126;28;20410;-57
2022/07/07 06:59:19;;;;;;;7.30;2.63;;;22.10;99.90;;;;;;5089335;28;20493;-57
2022/07/07 07:01:45;;;;;;;8.87;2.33;;;22.00;99.90;;;;;;5087426;28;20779;-56
2022/07/07 07:04:13;;;;;;;10.40;2.60;;;22.00;99.90;;;;;;5088602;28;20807;-56
2022/07/07 07:06:40;;;;;;;5.85;2.30;;;22.00;99.90;;;;;;5086080;28;20484;-56
2022/07/07 07:09:05;;;;;;;8.98;2.53;;;21.90;99.90;;;;;;5088533;28;20385;-56
2022/07/07 07:11:31;;;;;;;6.90;2.40;;;21.80;99.90;;;;;;5071325;28;20392;-56
2022/07/07 07:13:58;;;;;;;6.60;2.40;;;22.00;99.90;;;;;;5068244;28;20797;-57
2022/07/07 07:16:24;;;;;;;6.95;2.63;;;22.30;99.90;;;;;;5068359;28;20399;-57
2022/07/07 07:18:50;;;;;;;8.50;2.70;;;22.70;99.90;;;;;;5067173;28;21052;-56
2022/07/07 07:21:15;;;;;;;7.40;2.70;;;23.20;99.90;;;;;;5081151;28;20922;-57
2022/07/07 07:23:41;;;;;;;8.53;2.80;;;23.20;99.90;;;;;;5087269;28;20378;-56
2022/07/07 07:26:08;;;;;;;7.57;2.70;;;23.10;99.90;;;;;;5074792;28;20490;-56
2022/07/07 07:28:34;;;;;;;7.43;2.88;;;23.10;99.90;;;;;;5067248;28;20403;-56
2022/07/07 07:31:00;;;;;;;5.80;2.40;;;23.30;99.90;;;;;;5068999;28;20387;-56
2022/07/07 07:33:28;;;;;;;5.97;2.30;;;23.00;99.90;;;;;;5068811;28;20407;-56
2022/07/07 07:35:54;;;;;;;6.40;2.50;;;22.90;99.90;;;;;;5068099;28;20427;-56
2022/07/07 07:38:20;;;;;;;11.85;2.50;;;22.80;99.90;;;;;;5067844;28;20391;-57
2022/07/07 07:40:46;;;;;;;8.25;2.33;;;22.60;99.90;;;;;;5078395;28;20392;-56
2022/07/07 07:43:12;;;;;;;6.57;2.42;;;22.10;99.90;;;;;;5067353;28;20822;-56
2022/07/07 07:45:38;;;;;;;7.43;2.20;;;21.90;99.90;;;;;;5067066;28;20372;-56
2022/07/07 07:48:04;;;;;;;10.95;2.40;;;21.80;99.90;;;;;;5067378;28;20383;-56
2022/07/07 07:50:31;;;;;;;7.47;2.60;;;21.60;99.90;;;;;;5084433;28;20883;-56
2022/07/07 07:52:58;;;;;;;8.75;2.60;;;21.50;99.90;;;;;;5087280;28;20566;-56
2022/07/07 07:55:23;;;;;;;6.85;2.80;;;21.20;99.90;;;;;;5069271;28;20411;-56
2022/07/07 07:57:50;;;;;;;7.93;2.50;;;20.90;99.90;;;;;;5066697;28;20386;-56
2022/07/07 08:00:19;;;;;;;7.22;2.55;;;20.70;99.90;;;;;;5083201;28;20439;-56
2022/07/07 08:02:46;;;;;;;9.02;2.50;;;20.60;99.90;;;;;;5086943;28;20440;-56
2022/07/07 08:05:14;;;;;;;6.90;2.40;;;20.70;99.90;;;;;;5084910;28;20484;-56
2022/07/07 08:07:41;;;;;;;7.05;2.50;;;20.50;99.90;;;;;;5068087;28;20414;-56
2022/07/07 08:10:08;;;;;;;6.83;2.60;;;20.60;99.90;;;;;;5081625;28;20822;-56
2022/07/07 08:12:34;;;;;;;7.75;2.50;;;20.90;99.90;;;;;;5087066;28;20428;-56
2022/07/07 08:15:00;;;;;;;7.87;2.60;;;20.80;99.90;;;;;;5072126;28;20404;-56
2022/07/07 08:17:26;;;;;;;5.90;2.20;;;20.70;99.90;;;;;;5067437;28;20387;-56
2022/07/07 08:19:51;;;;;;;6.27;2.60;;;20.80;99.90;;;;;;5079721;28;20386;-56
2022/07/07 08:22:17;;;;;;;7.40;3.20;;;21.20;99.90;;;;;;5087460;28;20370;-56
2022/07/07 08:24:43;;;;;;;8.30;3.10;;;21.40;99.90;;;;;;5073524;28;20401;-56
2022/07/07 08:27:09;;;;;;;12.20;3.33;;;21.80;99.90;;;;;;5067029;28;20733;-56
2022/07/07 08:29:40;;;;;;;8.23;3.90;;;22.20;99.90;;;;;;5078278;28;20382;-56
2022/07/07 08:32:07;;;;;;;7.50;3.88;;;22.60;99.90;;;;;;5067522;28;20494;-57
2022/07/07 08:34:34;;;;;;;11.38;4.35;;;23.00;99.90;;;;;;5065600;28;20737;-56
2022/07/07 08:36:59;;;;;;;9.80;3.60;;;23.10;99.90;;;;;;5083456;28;20409;-57
2022/07/07 08:39:25;;;;;;;8.93;4.00;;;23.70;99.90;;;;;;5087347;28;20421;-56
2022/07/07 08:41:51;;;;;;;7.88;3.90;;;23.30;99.90;;;;;;5085843;28;20900;-56
2022/07/07 08:44:18;;;;;;;9.20;4.30;;;23.80;99.90;;;;;;5069629;28;20420;-57
2022/07/07 08:46:44;;;;;;;7.13;3.10;;;24.80;99.90;;;;;;5074134;28;20397;-57
2022/07/07 08:49:10;;;;;;;8.30;3.50;;;24.10;99.90;;;;;;5067257;28;20384;-57
2022/07/07 08:51:43;;;;;;;10.25;3.65;;;23.30;99.90;;;;;;5068699;28;20384;-56
2022/07/07 08:54:10;;;;;;;8.02;3.70;;;22.70;99.90;;;;;;5087347;28;20489;-56
2022/07/07 08:56:38;;;;;;;8.45;3.33;;;23.40;99.90;;;;;;5073689;28;20511;-56
2022/07/07 08:59:06;;;;;;;7.63;3.60;;;24.00;99.90;;;;;;5090702;28;20394;-58
2022/07/07 09:01:32;;;;;;;7.80;3.60;;;24.40;99.90;;;;;;5089671;28;20409;-55
2022/07/07 09:03:58;;;;;;;9.57;4.05;;;24.60;99.90;;;;;;5085265;28;20405;-56
2022/07/07 09:06:24;;;;;;;8.70;3.20;;;23.10;99.90;;;;;;5072066;28;20452;-58
2022/07/07 09:08:49;;;;;;;9.48;3.20;;;22.40;99.90;;;;;;5069459;28;20391;-55
2022/07/07 09:11:15;;;;;;;7.68;3.30;;;22.10;99.90;;;;;;5070948;28;20380;-56
2022/07/07 09:13:41;;;;;;;7.13;3.50;;;22.30;99.90;;;;;;5071550;28;20544;-55
2022/07/07 09:16:15;;;;;;;8.63;3.60;;;21.90;99.90;;;;;;5078112;28;20417;-55
2022/07/07 09:18:44;;;;;;;8.98;3.95;;;21.80;99.90;;;;;;5089718;28;20386;-55
2022/07/07 09:21:29;;;;;;;9.50;4.00;;;21.50;99.90;;;;;;5078293;28;20857;-55
2022/07/07 09:23:57;;;;;;;15.23;3.80;;;21.00;99.90;;;;;;5049318;28;21207;-56
2022/07/07 09:26:46;;;;;;;8.80;3.90;;;20.90;99.90;;;;;;5067942;28;20507;-56
2022/07/07 09:29:15;;;;;;;8.50;3.40;;;21.00;99.90;;;;;;5090783;28;20879;-57
2022/07/07 09:32:05;;;;;;;8.60;3.70;;;20.90;99.90;;;;;;5089459;28;20370;-55
2022/07/07 09:34:35;;;;;;;13.88;4.00;;;20.70;99.90;;;;;;5089784;28;20382;-55
2022/07/07 09:39:49;;;;;;;8.30;3.10;;;20.40;99.90;;;;;;5074649;28;20369;-57
2022/07/07 09:42:32;;;;;;;7.20;2.80;;;20.10;99.90;;;;;;5090359;28;20489;-56
2022/07/07 09:45:02;;;;;;;7.75;2.72;;;20.00;99.90;;;;;;5076603;28;20440;-57
2022/07/07 09:47:29;;;;;;;9.80;2.90;;;20.10;99.90;;;;;;5070138;28;20794;-56
2022/07/07 09:50:03;;;;;;;7.50;3.20;;;20.40;99.90;;;;;;5069196;28;20849;-55
2022/07/07 09:52:32;;;;;;;6.72;2.47;;;20.30;99.90;;;;;;5073208;28;20413;-55
2022/07/07 09:55:00;;;;;;;7.28;2.53;;;20.50;99.90;;;;;;5076436;28;20398;-56
2022/07/07 09:57:26;;;;;;;6.70;2.45;;;20.70;99.90;;;;;;5089947;28;20852;-56
2022/07/07 09:59:54;;;;;;;6.27;2.40;;;20.70;99.90;;;;;;5089422;28;20800;-56
2022/07/07 10:02:27;;;;;;;6.80;2.65;;;20.60;99.90;;;;;;5090735;28;20472;-56
2022/07/07 10:04:55;;;;;;;6.57;2.78;;;20.70;99.90;;;;;;5088839;28;20378;-56
2022/07/07 10:07:23;;;;;;;6.70;2.20;;;21.10;99.90;;;;;;5089836;28;20366;-56
2022/07/07 10:09:52;;;;;;;7.40;2.50;;;21.70;99.90;;;;;;5088962;28;20460;-56
2022/07/07 10:12:20;;;;;;;8.30;3.05;;;22.00;99.90;;;;;;5090137;28;20463;-56
2022/07/07 10:14:48;;;;;;;6.97;2.58;;;22.20;99.90;;;;;;5074003;28;20384;-56
2022/07/07 10:17:16;;;;;;;7.05;2.88;;;22.30;99.90;;;;;;5082119;28;20386;-57
2022/07/07 10:19:43;;;;;;;8.13;2.50;;;22.50;99.90;;;;;;5069331;28;20468;-56
2022/07/07 10:22:12;;;;;;;6.45;2.50;;;22.30;99.90;;;;;;5078464;28;20439;-56
2022/07/07 10:24:39;;;;;;;7.80;2.45;;;21.80;99.90;;;;;;5089082;28;20424;-55
2022/07/07 10:27:05;;;;;;;6.25;2.30;;;22.00;99.90;;;;;;5076741;28;20423;-56
2022/07/07 10:29:54;;;;;;;7.90;2.70;;;22.10;99.90;;;;;;5089508;28;20447;-56
2022/07/07 10:32:40;;;;;;;7.25;2.78;;;22.40;99.90;;;;;;5077879;28;20726;-56
2022/07/07 10:35:14;;;;;;;7.68;2.35;;;22.50;99.90;;;;;;5077567;28;20412;-56
2022/07/07 10:37:47;;;;;;;8.85;2.33;;;22.40;99.90;;;;;;5068230;28;20388;-56
2022/07/07 10:40:33;;;;;;;8.40;2.10;;;22.20;99.90;;;;;;5074918;28;20832;-56
2022/07/07 10:43:10;;;;;;;6.55;2.15;;;21.90;99.90;;;;;;5080036;28;20400;-57
2022/07/07 10:45:47;;;;;;;7.65;2.30;;;21.80;99.90;;;;;;5068317;28;20372;-55
2022/07/07 10:48:42;;;;;;;6.60;2.28;;;21.60;99.90;;;;;;5078986;28;20463;-56
2022/07/07 10:51:15;;;;;;;6.57;2.20;;;21.70;99.90;;;;;;5083776;28;20426;-56
2022/07/07 10:53:53;;;;;;;7.00;2.20;;;21.70;99.90;;;;;;5074312;28;20399;-56
2022/07/07 10:56:19;;;;;;;6.05;2.20;;;21.60;99.90;;;;;;5069989;28;20428;-56
2022/07/07 10:58:56;;;;;;;9.27;2.20;;;21.60;99.90;;;;;;5067718;28;20380;-56
2022/07/07 11:01:24;;;;;;;6.47;2.20;;;21.40;99.90;;;;;;5071160;28;20390;-56
2022/07/07 11:03:49;;;;;;;8.03;2.50;;;21.20;99.90;;;;;;5068932;28;20418;-56
2022/07/07 11:06:15;;;;;;;7.30;2.47;;;20.90;99.90;;;;;;5048551;28;20743;-56
2022/07/07 11:08:41;;;;;;;8.23;2.90;;;20.90;99.90;;;;;;5060410;28;20380;-55
2022/07/07 11:11:07;;;;;;;6.40;2.10;;;21.00;99.90;;;;;;5068409;28;20420;-55
2022/07/07 11:13:43;;;;;;;6.25;2.40;;;21.00;99.90;;;;;;5068388;28;20404;-56
2022/07/07 11:16:12;;;;;;;6.90;2.35;;;20.90;99.90;;;;;;5067654;28;20460;-56
2022/07/07 11:18:38;;;;;;;6.13;2.20;;;20.90;99.90;;;;;;5079081;28;20388;-55
2022/07/07 11:21:06;;;;;;;6.80;2.20;;;20.90;99.90;;;;;;5068214;28;20533;-57
2022/07/07 11:23:48;;;;;;;7.50;2.30;;;21.00;99.90;;;;;;5079803;28;20386;-56
2022/07/07 11:26:23;;;;;;;7.07;2.28;;;21.10;99.90;;;;;;5087510;28;20410;-56
2022/07/07 11:28:49;;;;;;;7.78;2.80;;;21.00;99.90;;;;;;5083005;28;20448;-55
2022/07/07 11:31:15;;;;;;;8.30;2.27;;;21.10;99.90;;;;;;5068132;28;20477;-55
2022/07/07 11:33:41;;;;;;;8.70;2.40;;;21.10;99.90;;;;;;5069434;28;20813;-55
2022/07/07 11:36:22;;;;;;;6.80;2.53;;;21.20;99.90;;;;;;5067806;28;20382;-55
2022/07/07 11:38:51;;;;;;;7.20;2.60;;;20.80;99.90;;;;;;5075160;28;20382;-56
2022/07/07 11:41:17;;;;;;;8.47;2.53;;;20.80;99.90;;;;;;5088076;28;20378;-56
2022/07/07 11:43:43;;;;;;;12.70;4.10;;;21.00;99.90;;;;;;5082627;28;20403;-56
2022/07/07 11:46:09;;;;;;;7.15;2.95;;;21.20;99.90;;;;;;5067730;28;20376;-57
2022/07/07 11:48:38;;;;;;;8.50;2.80;;;21.40;99.90;;;;;;5067462;28;20457;-55
2022/07/07 11:51:04;;;;;;;8.13;2.88;;;21.70;99.90;;;;;;5069032;28;20396;-56
2022/07/07 11:53:30;;;;;;;8.73;2.60;;;21.60;99.90;;;;;;5067884;28;20837;-56
2022/07/07 11:55:56;;;;;;;10.53;2.60;;;21.40;99.90;;;;;;5071521;28;20390;-56
2022/07/07 11:58:22;;;;;;;8.00;2.60;;;21.50;99.90;;;;;;5087863;28;20389;-56
2022/07/07 12:00:52;;;;;;;9.07;2.90;;;21.50;99.90;;;;;;5083942;28;20398;-56
2022/07/07 12:03:18;;;;;;;8.80;3.15;;;21.50;99.90;;;;;;5068031;28;20461;-56
2022/07/07 12:05:46;;;;;;;7.40;3.00;;;21.30;99.90;;;;;;5069454;28;20432;-56
2022/07/07 12:08:14;;;;;;;7.28;3.10;;;21.30;99.90;;;;;;5087961;28;20422;-56
2022/07/07 12:10:57;;;;;;;8.88;3.50;;;21.50;99.90;;;;;;5083117;28;20554;-55
2022/07/07 12:13:25;;;;;;;11.32;4.03;;;21.60;99.90;;;;;;5067574;28;20404;-56
2022/07/07 12:15:53;;;;;;;10.05;3.80;;;21.50;99.90;;;;;;5067292;28;20488;-56
2022/07/07 12:18:39;;;;;;;8.45;3.25;;;21.50;99.90;;;;;;5067646;28;20376;-57
2022/07/07 12:21:08;;;;;;;8.23;3.65;;;21.20;99.90;;;;;;5074605;28;20393;-55
2022/07/07 12:23:39;;;;;;;15.95;3.47;;;21.40;99.90;;;;;;5079342;28;20394;-56
2022/07/07 12:26:11;;;;;;;9.00;3.60;;;21.40;99.90;;;;;;5072781;28;20446;-56
2022/07/07 12:28:37;;;;;;;8.65;3.75;;;21.50;99.90;;;;;;5076906;28;20457;-56
2022/07/07 12:31:04;;;;;;;7.03;3.30;;;21.60;99.90;;;;;;5072538;28;20415;-56
2022/07/07 12:33:33;;;;;;;7.07;3.17;;;21.60;99.90;;;;;;5075038;28;20424;-56
2022/07/07 12:36:15;;;;;;;8.57;2.90;;;21.20;99.90;;;;;;5090690;28;20393;-56
2022/07/07 12:38:46;;;;;;;8.70;3.88;;;21.00;99.90;;;;;;5089491;28;20401;-56
2022/07/07 12:41:33;;;;;;;11.57;3.40;;;20.90;99.90;;;;;;5091638;28;20385;-56
2022/07/07 12:44:16;;;;;;;9.43;3.50;;;20.70;99.90;;;;;;5086414;28;20874;-56
2022/07/07 12:46:42;;;;;;;10.00;3.90;;;20.50;1.00;;;;;;5089198;28;20410;-57
2022/07/07 12:49:09;;;;;;;8.25;3.60;;;20.30;1.00;;;;;;5070617;28;20517;-55
2022/07/07 12:51:37;;;;;;;9.65;4.13;;;20.40;1.00;;;;;;5070757;28;20374;-56
2022/07/07 12:54:03;;;;;;;11.35;4.18;;;20.60;1.00;;;;;;5082437;28;20434;-56
2022/07/07 12:56:37;;;;;;;9.20;3.97;;;20.80;1.00;;;;;;5072218;28;20400;-57